createdAt,value
2022-08-30T00:00:03.969Z,46.07
2022-08-30T00:02:32.867Z,46.11
2022-08-30T00:05:02.463Z,45.87
2022-08-30T00:07:31.417Z,45.77
2022-08-30T00:10:01.875Z,45.97
2022-08-30T00:12:32.755Z,45.97
2022-08-30T00:15:01.533Z,45.12
2022-08-30T00:17:30.339Z,45.68
2022-08-30T00:19:59.322Z,45.76
2022-08-30T00:22:28.118Z,45.88
2022-08-30T00:24:56.880Z,45.97
2022-08-30T00:27:29.777Z,45.90
2022-08-30T00:29:58.579Z,45.77
2022-08-30T00:32:27.473Z,45.78
2022-08-30T00:34:56.558Z,45.58
2022-08-30T00:37:25.326Z,45.95
2022-08-30T00:39:54.257Z,45.84
2022-08-30T00:42:23.321Z,45.94
2022-08-30T00:44:53.852Z,45.69
2022-08-30T00:47:22.641Z,45.74
2022-08-30T00:49:53.177Z,45.75
2022-08-30T00:52:22.309Z,45.70
2022-08-30T00:54:51.275Z,45.90
2022-08-30T00:57:20.071Z,45.79
2022-08-30T00:59:50.081Z,45.89
2022-08-30T01:02:21.538Z,45.92
2022-08-30T01:04:51.561Z,46.02
2022-08-30T01:07:20.349Z,45.93
2022-08-30T01:09:49.133Z,45.95
2022-08-30T01:12:17.928Z,45.85
2022-08-30T01:14:47.412Z,45.84
2022-08-30T01:17:19.115Z,45.90
2022-08-30T01:19:52.981Z,45.89
2022-08-30T01:22:25.791Z,45.78
2022-08-30T01:24:56.624Z,45.78
2022-08-30T01:27:27.049Z,45.97
2022-08-30T01:29:56.111Z,45.99
2022-08-30T01:32:29.079Z,45.65
2022-08-30T01:34:58.235Z,45.80
2022-08-30T01:37:31.341Z,45.74
2022-08-30T01:40:01.458Z,45.95
2022-08-30T01:42:30.295Z,45.67
2022-08-30T01:44:59.125Z,45.82
2022-08-30T01:47:27.989Z,45.71
2022-08-30T01:49:56.833Z,45.76
2022-08-30T01:52:25.685Z,45.73
2022-08-30T01:54:54.491Z,45.80
2022-08-30T01:57:26.884Z,45.69
2022-08-30T01:59:55.657Z,45.77
2022-08-30T02:02:28.661Z,45.68
2022-08-30T02:04:57.490Z,45.69
2022-08-30T02:07:27.493Z,45.62
2022-08-30T02:09:56.911Z,45.70
2022-08-30T02:12:27.283Z,45.46
2022-08-30T02:14:56.136Z,45.46
2022-08-30T02:17:24.911Z,45.39
2022-08-30T02:19:53.720Z,45.49
2022-08-30T02:22:22.492Z,45.40
2022-08-30T02:24:51.843Z,45.43
2022-08-30T02:27:20.796Z,45.43
2022-08-30T02:29:50.715Z,45.26
2022-08-30T02:32:19.584Z,45.33
2022-08-30T02:34:48.499Z,45.52
2022-08-30T02:37:20.805Z,45.38
2022-08-30T02:39:49.551Z,45.36
2022-08-30T02:42:18.329Z,45.52
2022-08-30T02:44:47.145Z,45.43
2022-08-30T02:47:16.934Z,45.43
2022-08-30T02:49:45.862Z,45.48
2022-08-30T02:52:14.716Z,45.57
2022-08-30T02:54:43.484Z,45.55
2022-08-30T02:57:20.004Z,45.27
2022-08-30T02:59:49.774Z,45.53
2022-08-30T03:02:19.691Z,45.45
2022-08-30T03:04:49.032Z,45.33
2022-08-30T03:07:17.851Z,45.59
2022-08-30T03:09:46.671Z,45.44
2022-08-30T03:12:15.565Z,45.38
2022-08-30T03:14:44.379Z,45.37
2022-08-30T03:17:15.790Z,45.58
2022-08-30T03:19:46.278Z,45.57
2022-08-30T03:22:15.134Z,45.37
2022-08-30T03:24:43.922Z,45.42
2022-08-30T03:27:12.711Z,45.50
2022-08-30T03:29:43.433Z,45.28
2022-08-30T03:32:12.241Z,45.57
2022-08-30T03:34:41.109Z,45.36
2022-08-30T03:37:10.935Z,45.56
2022-08-30T03:39:39.706Z,45.21
2022-08-30T03:42:08.866Z,44.95
2022-08-30T03:44:37.815Z,44.84
2022-08-30T03:47:08.703Z,45.36
2022-08-30T03:49:37.441Z,45.48
2022-08-30T03:52:06.344Z,45.04
2022-08-30T03:54:36.150Z,44.90
2022-08-30T03:57:07.614Z,44.49
2022-08-30T03:59:40.600Z,45.38
2022-08-30T04:02:09.458Z,45.39
2022-08-30T04:04:38.240Z,45.29
2022-08-30T04:07:07.040Z,45.28
2022-08-30T04:09:36.859Z,45.50
2022-08-30T04:12:05.837Z,45.45
2022-08-30T04:14:34.761Z,45.48
2022-08-30T04:17:03.481Z,45.42
2022-08-30T04:19:32.385Z,44.88
2022-08-30T04:22:01.199Z,45.60
2022-08-30T04:24:30.108Z,45.41
2022-08-30T04:27:00.209Z,45.50
2022-08-30T04:29:29.149Z,45.57
2022-08-30T04:31:58.261Z,45.31
2022-08-30T04:34:27.099Z,45.62
2022-08-30T04:36:56.061Z,45.45
2022-08-30T04:39:25.698Z,45.43
2022-08-30T04:41:54.528Z,45.53
2022-08-30T04:44:26.057Z,45.47
2022-08-30T04:46:54.982Z,45.39
2022-08-30T04:49:23.986Z,45.46
2022-08-30T04:51:52.774Z,45.38
2022-08-30T04:54:21.591Z,45.34
2022-08-30T04:56:50.294Z,45.40
2022-08-30T04:59:19.038Z,45.56
2022-08-30T05:01:48.917Z,45.45
2022-08-30T05:04:17.766Z,45.43
2022-08-30T05:06:46.450Z,45.35
2022-08-30T05:09:15.573Z,45.33
2022-08-30T05:11:44.324Z,45.46
2022-08-30T05:14:13.022Z,45.53
2022-08-30T05:16:42.580Z,45.43
2022-08-30T05:19:12.456Z,45.52
2022-08-30T05:21:41.728Z,45.68
2022-08-30T05:24:10.579Z,45.58
2022-08-30T05:26:39.985Z,45.40
2022-08-30T05:29:08.763Z,45.33
2022-08-30T05:31:37.665Z,45.60
2022-08-30T05:34:06.560Z,45.49
2022-08-30T05:36:37.467Z,45.46
2022-08-30T05:39:06.536Z,45.68
2022-08-30T05:41:36.864Z,45.49
2022-08-30T05:44:06.823Z,45.42
2022-08-30T05:46:35.748Z,45.61
2022-08-30T05:49:06.006Z,45.34
2022-08-30T05:51:42.925Z,45.79
2022-08-30T05:54:12.607Z,45.74
2022-08-30T05:56:41.609Z,45.83
2022-08-30T05:59:10.572Z,45.77
2022-08-30T06:01:40.923Z,45.97
2022-08-30T06:04:10.872Z,46.01
2022-08-30T06:06:42.333Z,46.02
2022-08-30T06:09:11.504Z,46.01
2022-08-30T06:11:40.431Z,45.99
2022-08-30T06:14:09.216Z,46.08
2022-08-30T06:16:39.879Z,46.03
2022-08-30T06:19:11.052Z,46.11
2022-08-30T06:21:41.681Z,46.04
2022-08-30T06:24:11.763Z,46.23
2022-08-30T06:26:41.874Z,46.27
2022-08-30T06:29:11.050Z,46.21
2022-08-30T06:31:40.009Z,46.22
2022-08-30T06:34:08.863Z,46.12
2022-08-30T06:36:38.765Z,46.53
2022-08-30T06:39:08.830Z,46.46
2022-08-30T06:41:39.104Z,46.41
2022-08-30T06:44:08.167Z,46.38
2022-08-30T06:46:38.953Z,46.32
2022-08-30T06:49:08.152Z,46.41
2022-08-30T06:51:39.687Z,46.40
2022-08-30T06:54:12.009Z,46.45
2022-08-30T06:56:55.253Z,46.32
2022-08-30T06:59:26.961Z,46.42
2022-08-30T07:01:56.629Z,46.26
2022-08-30T07:04:25.510Z,46.40
2022-08-30T07:06:54.539Z,46.44
2022-08-30T07:09:24.399Z,46.52
2022-08-30T07:11:53.561Z,46.51
2022-08-30T07:14:23.985Z,46.39
2022-08-30T07:16:52.943Z,46.78
2022-08-30T07:19:21.546Z,46.75
2022-08-30T07:21:50.572Z,46.61
2022-08-30T07:24:19.606Z,47.02
2022-08-30T07:26:52.107Z,46.91
2022-08-30T07:29:21.911Z,46.74
2022-08-30T07:31:51.372Z,46.84
2022-08-30T07:34:22.396Z,47.00
2022-08-30T07:36:53.229Z,46.98
2022-08-30T07:39:22.117Z,46.68
2022-08-30T07:41:52.235Z,46.77
2022-08-30T07:44:22.851Z,47.01
2022-08-30T07:46:54.015Z,47.15
2022-08-30T07:49:22.844Z,47.38
2022-08-30T07:51:52.036Z,47.14
2022-08-30T07:54:20.879Z,47.36
2022-08-30T07:56:50.944Z,47.06
2022-08-30T07:59:19.832Z,47.45
2022-08-30T08:01:48.689Z,47.31
2022-08-30T08:04:17.737Z,47.18
2022-08-30T08:06:46.582Z,47.21
2022-08-30T08:09:15.353Z,47.39
2022-08-30T08:11:44.125Z,47.32
2022-08-30T08:16:48.590Z,46.97
2022-08-30T08:19:17.694Z,47.13
2022-08-30T08:21:46.487Z,47.29
2022-08-30T08:24:15.240Z,47.27
2022-08-30T08:26:45.331Z,47.08
2022-08-30T08:29:15.690Z,47.27
2022-08-30T08:31:46.071Z,47.12
2022-08-30T08:34:14.984Z,46.98
2022-08-30T08:36:44.365Z,47.14
2022-08-30T08:39:13.395Z,47.17
2022-08-30T08:41:47.718Z,47.19
2022-08-30T08:44:34.314Z,47.11
2022-08-30T08:47:07.234Z,47.19
2022-08-30T08:49:36.271Z,47.24
2022-08-30T08:52:23.227Z,47.21
2022-08-30T08:54:53.918Z,47.22
2022-08-30T08:57:24.869Z,47.25
2022-08-30T08:59:55.222Z,47.47
2022-08-30T09:02:26.106Z,47.14
2022-08-30T09:04:57.325Z,47.31
2022-08-30T09:07:27.978Z,47.57
2022-08-30T09:09:56.774Z,47.14
2022-08-30T09:12:25.506Z,47.49
2022-08-30T09:14:56.887Z,47.03
2022-08-30T09:17:28.038Z,47.30
2022-08-30T09:20:02.537Z,47.08
2022-08-30T09:22:34.325Z,47.34
2022-08-30T09:25:06.547Z,47.29
2022-08-30T09:27:36.981Z,47.23
2022-08-30T09:30:13.181Z,47.16
2022-08-30T09:32:44.873Z,47.15
2022-08-30T09:35:18.671Z,46.95
2022-08-30T09:37:52.609Z,46.86
2022-08-30T09:40:27.229Z,46.92
2022-08-30T09:43:04.584Z,46.96
2022-08-30T09:45:37.243Z,46.83
2022-08-30T09:48:28.525Z,47.04
2022-08-30T09:51:10.415Z,46.83
2022-08-30T09:53:50.944Z,46.89
2022-08-30T09:56:34.847Z,47.07
2022-08-30T09:59:07.401Z,47.01
2022-08-30T10:01:41.794Z,47.13
2022-08-30T10:04:14.127Z,47.01
2022-08-30T10:06:48.071Z,46.80
2022-08-30T10:09:24.178Z,47.01
2022-08-30T10:11:59.509Z,46.93
2022-08-30T10:14:49.884Z,47.23
2022-08-30T10:17:35.099Z,47.42
2022-08-30T10:20:13.686Z,47.25
2022-08-30T10:22:46.735Z,47.26
2022-08-30T10:25:18.466Z,47.39
2022-08-30T10:27:49.679Z,48.07
2022-08-30T10:30:18.547Z,47.52
2022-08-30T10:32:51.530Z,48.28
2022-08-30T10:35:21.869Z,47.44
2022-08-30T10:37:52.622Z,47.95
2022-08-30T10:40:42.529Z,47.72
2022-08-30T10:43:18.560Z,47.58
2022-08-30T10:45:48.078Z,48.12
2022-08-30T10:48:21.731Z,48.15
2022-08-30T10:50:52.271Z,48.51
2022-08-30T10:53:23.450Z,48.27
2022-08-30T10:55:54.880Z,48.38
2022-08-30T10:58:23.826Z,48.31
2022-08-30T11:01:00.689Z,48.26
2022-08-30T11:04:14.603Z,48.26
2022-08-30T11:06:46.040Z,47.67
2022-08-30T11:09:35.994Z,47.21
2022-08-30T11:12:27.032Z,47.11
2022-08-30T11:14:55.826Z,47.38
2022-08-30T11:17:27.598Z,47.61
2022-08-30T11:19:58.641Z,47.73
2022-08-30T11:22:38.129Z,47.83
2022-08-30T11:25:12.606Z,47.55
2022-08-30T11:27:59.725Z,47.72
2022-08-30T11:30:49.893Z,48.14
2022-08-30T11:33:48.890Z,47.69
2022-08-30T11:37:03.731Z,47.57
2022-08-30T11:40:02.090Z,47.75
2022-08-30T11:42:35.670Z,47.12
2022-08-30T11:45:40.970Z,46.62
2022-08-30T11:48:11.135Z,46.77
2022-08-30T11:50:48.475Z,46.48
2022-08-30T11:53:22.961Z,46.74
2022-08-30T11:56:00.747Z,46.93
2022-08-30T11:58:34.837Z,46.86
2022-08-30T12:01:49.686Z,47.30
2022-08-30T12:04:30.074Z,47.10
2022-08-30T12:07:00.430Z,46.82
2022-08-30T12:10:07.071Z,46.52
2022-08-30T12:12:54.892Z,46.19
2022-08-30T12:15:54.158Z,46.14
2022-08-30T12:18:30.521Z,46.28
2022-08-30T12:21:04.977Z,46.46
2022-08-30T12:23:44.636Z,46.43
2022-08-30T12:26:20.370Z,46.41
2022-08-30T12:28:51.030Z,46.42
2022-08-30T12:31:21.609Z,45.20
2022-08-30T12:33:51.824Z,45.53
2022-08-30T12:36:34.078Z,45.50
2022-08-30T12:39:11.191Z,45.05
2022-08-30T12:41:43.600Z,44.97
2022-08-30T12:44:16.392Z,44.79
2022-08-30T12:46:46.848Z,45.01
2022-08-30T12:49:15.841Z,44.86
2022-08-30T12:51:44.854Z,44.38
2022-08-30T12:54:19.566Z,44.29
2022-08-30T12:56:54.005Z,43.57
2022-08-30T12:59:54.165Z,43.40
2022-08-30T13:02:26.132Z,43.68
2022-08-30T13:04:55.489Z,42.91
2022-08-30T13:07:29.002Z,42.06
2022-08-30T13:10:04.063Z,41.25
2022-08-30T13:12:36.128Z,41.57
2022-08-30T13:15:14.408Z,42.12
2022-08-30T13:17:43.347Z,42.33
2022-08-30T13:20:23.742Z,41.54
2022-08-30T13:23:07.185Z,41.32
2022-08-30T13:25:36.163Z,41.75
2022-08-30T13:28:07.447Z,42.36
2022-08-30T13:30:36.283Z,42.85
2022-08-30T13:33:05.207Z,42.70
2022-08-30T13:35:34.006Z,42.92
2022-08-30T13:38:03.003Z,43.11
2022-08-30T13:40:31.863Z,41.61
2022-08-30T13:43:00.785Z,41.64
2022-08-30T13:45:45.953Z,41.79
2022-08-30T13:48:14.907Z,41.43
2022-08-30T13:50:46.251Z,41.36
2022-08-30T13:53:15.308Z,41.37
2022-08-30T13:55:44.305Z,40.77
2022-08-30T13:58:13.361Z,40.73
2022-08-30T14:00:43.810Z,40.78
2022-08-30T14:03:12.884Z,40.78
2022-08-30T14:05:52.955Z,41.02
2022-08-30T14:08:48.543Z,41.42
2022-08-30T14:11:20.917Z,39.95
2022-08-30T14:16:41.643Z,40.06
2022-08-30T14:19:10.445Z,40.37
2022-08-30T14:21:39.746Z,40.44
2022-08-30T14:24:08.642Z,40.53
2022-08-30T14:26:39.723Z,40.71
2022-08-30T14:29:10.061Z,41.20
2022-08-30T14:31:40.858Z,41.39
2022-08-30T14:34:11.002Z,41.59
2022-08-30T14:36:41.354Z,41.98
2022-08-30T14:39:11.837Z,42.24
2022-08-30T14:41:44.088Z,42.37
2022-08-30T14:44:13.564Z,42.63
2022-08-30T14:46:43.847Z,43.28
2022-08-30T14:49:12.913Z,42.51
2022-08-30T14:51:41.795Z,42.75
2022-08-30T14:54:10.597Z,43.09
2022-08-30T14:56:39.443Z,43.28
2022-08-30T14:59:08.380Z,43.38
2022-08-30T15:01:37.589Z,43.10
2022-08-30T15:04:08.086Z,43.37
2022-08-30T15:06:37.166Z,43.16
2022-08-30T15:09:06.221Z,42.92
2022-08-30T15:11:35.256Z,42.54
2022-08-30T15:14:03.986Z,42.39
2022-08-30T15:16:34.078Z,42.99
2022-08-30T15:19:03.059Z,42.52
2022-08-30T15:21:34.347Z,42.21
2022-08-30T15:24:05.839Z,42.48
2022-08-30T15:26:36.432Z,42.43
2022-08-30T15:29:05.204Z,42.58
2022-08-30T15:31:34.027Z,42.89
2022-08-30T15:34:03.955Z,43.08
2022-08-30T15:36:33.892Z,42.84
2022-08-30T15:39:02.619Z,43.40
2022-08-30T15:41:31.602Z,43.47
2022-08-30T15:44:00.660Z,43.24
2022-08-30T15:46:32.231Z,43.33
2022-08-30T15:49:03.748Z,43.24
2022-08-30T15:51:41.081Z,43.66
2022-08-30T15:54:11.657Z,43.84
2022-08-30T15:56:41.787Z,43.74
2022-08-30T15:59:10.885Z,43.76
2022-08-30T16:01:39.917Z,43.83
2022-08-30T16:04:09.031Z,43.90
2022-08-30T16:06:41.781Z,43.77
2022-08-30T16:09:10.898Z,44.23
2022-08-30T16:11:39.767Z,43.90
2022-08-30T16:14:08.726Z,43.82
2022-08-30T16:16:39.958Z,44.03
2022-08-30T16:19:10.306Z,44.45
2022-08-30T16:21:41.760Z,44.23
2022-08-30T16:24:13.790Z,44.14
2022-08-30T16:26:43.143Z,44.19
2022-08-30T16:29:12.595Z,44.17
2022-08-30T16:31:43.632Z,44.34
2022-08-30T16:34:12.832Z,43.99
2022-08-30T16:36:43.004Z,44.43
2022-08-30T16:39:13.572Z,44.14
2022-08-30T16:41:42.457Z,44.43
2022-08-30T16:44:13.286Z,44.66
2022-08-30T16:46:53.157Z,44.33
2022-08-30T16:49:23.350Z,44.27
2022-08-30T16:51:55.944Z,44.47
2022-08-30T16:54:25.492Z,44.66
2022-08-30T16:56:55.429Z,44.59
2022-08-30T16:59:24.358Z,44.92
2022-08-30T17:01:54.044Z,44.73
2022-08-30T17:04:23.212Z,44.66
2022-08-30T17:06:52.112Z,44.69
2022-08-30T17:09:22.465Z,45.38
2022-08-30T17:11:52.342Z,45.55
2022-08-30T17:14:28.021Z,45.29
2022-08-30T17:16:58.137Z,45.50
2022-08-30T17:19:29.413Z,45.50
2022-08-30T17:21:58.712Z,45.56
2022-08-30T17:24:28.703Z,45.70
2022-08-30T17:26:58.320Z,45.95
2022-08-30T17:29:27.505Z,45.92
2022-08-30T17:31:56.938Z,45.57
2022-08-30T17:34:26.587Z,45.80
2022-08-30T17:36:57.214Z,45.76
2022-08-30T17:39:26.356Z,46.08
2022-08-30T17:41:57.392Z,45.51
2022-08-30T17:44:29.049Z,45.76
2022-08-30T17:46:59.531Z,45.65
2022-08-30T17:49:28.972Z,45.75
2022-08-30T17:51:58.468Z,46.06
2022-08-30T17:54:27.535Z,46.02
2022-08-30T17:56:57.728Z,45.75
2022-08-30T17:59:27.097Z,46.05
2022-08-30T18:02:21.518Z,46.26
2022-08-30T18:04:57.211Z,46.24
2022-08-30T18:07:26.603Z,46.02
2022-08-30T18:09:55.833Z,45.95
2022-08-30T18:12:28.454Z,45.80
2022-08-30T18:14:57.513Z,45.89
2022-08-30T18:17:26.275Z,45.92
2022-08-30T18:19:55.304Z,45.84
2022-08-30T18:22:26.518Z,46.01
2022-08-30T18:24:59.096Z,46.02
2022-08-30T18:27:31.578Z,46.45
2022-08-30T18:30:00.378Z,45.82
2022-08-30T18:32:32.823Z,45.92
2022-08-30T18:35:05.709Z,45.82
2022-08-30T18:37:34.863Z,45.98
2022-08-30T18:40:04.306Z,46.02
2022-08-30T18:42:34.460Z,46.03
2022-08-30T18:45:08.131Z,45.98
2022-08-30T18:47:43.731Z,45.82
2022-08-30T18:50:13.259Z,45.88
2022-08-30T18:52:42.130Z,45.70
2022-08-30T18:55:14.193Z,45.97
2022-08-30T18:57:44.902Z,45.91
2022-08-30T19:00:16.957Z,45.84
2022-08-30T19:02:45.744Z,45.94
2022-08-30T19:05:16.089Z,45.84
2022-08-30T19:07:44.960Z,46.37
2022-08-30T19:10:14.353Z,46.05
2022-08-30T19:12:44.366Z,45.74
2022-08-30T19:15:13.478Z,45.86
2022-08-30T19:17:43.992Z,45.68
2022-08-30T19:20:14.547Z,45.66
2022-08-30T19:23:09.309Z,45.88
2022-08-30T19:25:32.621Z,45.68
2022-08-30T19:28:02.425Z,46.13
2022-08-30T19:30:34.773Z,45.94
2022-08-30T19:33:03.609Z,46.00
2022-08-30T19:35:34.594Z,45.68
2022-08-30T19:38:03.627Z,45.95
2022-08-30T19:40:33.340Z,45.85
2022-08-30T19:43:05.247Z,45.67
2022-08-30T19:45:34.065Z,46.03
2022-08-30T19:48:02.970Z,46.13
2022-08-30T19:50:31.822Z,46.05
2022-08-30T19:53:01.072Z,45.57
2022-08-30T19:55:31.260Z,45.45
2022-08-30T19:58:02.023Z,45.07
2022-08-30T20:00:31.642Z,45.01
2022-08-30T20:03:01.360Z,45.01
2022-08-30T20:05:30.888Z,44.80
2022-08-30T20:07:59.854Z,45.12
2022-08-30T20:10:29.351Z,44.72
2022-08-30T20:12:58.233Z,44.91
2022-08-30T20:15:28.354Z,44.87
2022-08-30T20:18:06.320Z,44.50
2022-08-30T20:20:49.438Z,44.57
2022-08-30T20:26:08.046Z,44.28
2022-08-30T20:28:37.297Z,44.42
2022-08-30T20:31:09.010Z,44.49
2022-08-30T20:33:39.644Z,44.68
2022-08-30T20:36:09.816Z,44.74
2022-08-30T20:38:38.801Z,44.80
2022-08-30T20:41:10.696Z,44.90
2022-08-30T20:43:39.618Z,44.55
2022-08-30T20:46:13.132Z,44.74
2022-08-30T20:48:42.179Z,45.02
2022-08-30T20:51:13.067Z,44.64
2022-08-30T20:53:41.778Z,44.84
2022-08-30T20:56:12.952Z,44.71
2022-08-30T20:58:41.780Z,44.73
2022-08-30T21:01:12.145Z,44.90
2022-08-30T21:03:41.187Z,44.92
2022-08-30T21:06:11.707Z,44.62
2022-08-30T21:08:40.943Z,44.49
2022-08-30T21:11:09.708Z,44.51
2022-08-30T21:13:38.742Z,44.38
2022-08-30T21:16:07.601Z,44.57
2022-08-30T21:18:38.249Z,44.27
2022-08-30T21:21:10.582Z,44.46
2022-08-30T21:23:39.333Z,44.58
2022-08-30T21:26:08.784Z,44.46
2022-08-30T21:28:37.722Z,44.36
2022-08-30T21:31:07.757Z,44.31
2022-08-30T21:33:38.120Z,44.36
2022-08-30T21:36:25.120Z,44.28
2022-08-30T21:38:54.070Z,44.10
2022-08-30T21:41:26.930Z,44.24
2022-08-30T21:43:57.847Z,44.33
2022-08-30T21:46:27.387Z,44.18
2022-08-30T21:48:58.744Z,44.08
2022-08-30T21:51:27.703Z,44.15
2022-08-30T21:53:58.033Z,44.22
2022-08-30T21:56:26.771Z,44.26
2022-08-30T21:58:56.090Z,44.24
2022-08-30T22:01:25.739Z,44.24
2022-08-30T22:03:56.373Z,44.17
2022-08-30T22:06:30.657Z,43.93
2022-08-30T22:09:01.262Z,44.06
2022-08-30T22:11:31.168Z,44.03
2022-08-30T22:14:00.573Z,44.05
2022-08-30T22:16:29.922Z,44.30
2022-08-30T22:19:01.529Z,44.35
2022-08-30T22:21:32.775Z,44.10
2022-08-30T22:24:02.262Z,43.95
2022-08-30T22:26:32.455Z,44.24
2022-08-30T22:29:01.653Z,44.23
2022-08-30T22:31:30.820Z,44.22
2022-08-30T22:34:01.330Z,44.26
2022-08-30T22:36:32.449Z,44.24
2022-08-30T22:39:03.137Z,44.26
2022-08-30T22:41:34.187Z,44.32
2022-08-30T22:44:03.387Z,44.82
2022-08-30T22:46:34.519Z,44.89
2022-08-30T22:49:05.563Z,44.93
2022-08-30T22:51:34.834Z,45.13
2022-08-30T22:54:04.030Z,44.98
2022-08-30T22:56:33.854Z,45.14
2022-08-30T22:59:03.304Z,44.92
2022-08-30T23:01:35.355Z,45.29
2022-08-30T23:04:06.866Z,45.09
2022-08-30T23:06:36.391Z,45.25
2022-08-30T23:09:05.848Z,45.18
2022-08-30T23:11:34.756Z,45.42
2022-08-30T23:14:03.677Z,45.27
2022-08-30T23:16:32.948Z,45.42
2022-08-30T23:19:01.906Z,45.14
2022-08-30T23:21:32.087Z,44.99
2022-08-30T23:24:18.404Z,45.10
2022-08-30T23:27:04.757Z,45.49
2022-08-30T23:29:51.134Z,45.50
2022-08-30T23:32:37.565Z,45.40
2022-08-30T23:35:29.676Z,45.10
2022-08-30T23:38:17.753Z,45.48
2022-08-30T23:41:04.292Z,45.22
2022-08-30T23:43:50.525Z,45.49
2022-08-30T23:46:36.717Z,45.50
2022-08-30T23:49:23.420Z,45.53
2022-08-30T23:52:09.714Z,45.61
2022-08-30T23:54:57.750Z,45.58
2022-08-30T23:57:44.357Z,45.75
